Time;durP1;ratioP1;P1;durP2;ratioP2;P2;SDS_P1;SDS_P2;PMS_P1;PMS_P2;Temp;Humidity;BMP_temperature;BMP_pressure;BME280_temperature;BME280_humidity;BME280_pressure;Samples;Min_cycle;Max_cycle;Signal;HPM_P1;HPM_P2
2023/05/15 07:44:50;;;;;;;3.92;2.50;;;;;;;;;;5053611;28;20259;-91
2023/05/15 07:47:17;;;;;;;2.88;2.58;;;;;;;;;;5057866;28;20230;-91
2023/05/15 07:49:45;;;;;;;5.00;2.50;;;;;;;;;;5049899;28;20264;-91
2023/05/15 07:52:12;;;;;;;2.97;2.70;;;;;;;;;;5047405;28;20234;-91
2023/05/15 07:54:41;;;;;;;2.95;2.60;;;;;;;;;;5057067;28;20213;-90
2023/05/15 07:57:08;;;;;;;2.65;2.45;;;;;;;;;;5057350;28;20240;-90
2023/05/15 07:59:35;;;;;;;2.78;2.58;;;;;;;;;;5044908;28;20203;-90
2023/05/15 08:02:04;;;;;;;2.80;2.60;;;;;;;;;;5037729;28;20249;-91
2023/05/15 08:04:31;;;;;;;4.20;2.70;;;;;;;;;;5037786;28;20257;-90
2023/05/15 08:06:58;;;;;;;2.80;2.60;;;;;;;;;;5044424;28;20241;-90
2023/05/15 08:09:25;;;;;;;2.80;2.60;;;;;;;;;;5041163;28;20206;-91
2023/05/15 08:11:52;;;;;;;2.70;2.50;;;;;;;;;;5041987;28;20233;-91
2023/05/15 08:14:19;;;;;;;3.15;2.85;;;;;;;;;;5038428;28;20222;-91
2023/05/15 08:16:46;;;;;;;3.80;2.65;;;;;;;;;;5040916;28;20251;-89
2023/05/15 08:19:14;;;;;;;2.80;2.42;;;;;;;;;;5047001;28;20203;-89
2023/05/15 08:21:41;;;;;;;3.42;2.67;;;;;;;;;;5050019;28;20223;-90
2023/05/15 08:24:09;;;;;;;2.65;2.45;;;;;;;;;;5045680;28;20206;-94
2023/05/15 08:26:36;;;;;;;2.85;2.50;;;;;;;;;;5045166;28;20253;-89
2023/05/15 08:29:03;;;;;;;2.60;2.30;;;;;;;;;;5042929;28;20202;-89
2023/05/15 08:31:30;;;;;;;2.45;2.25;;;;;;;;;;5054975;28;20244;-89
2023/05/15 08:33:57;;;;;;;3.80;2.42;;;;;;;;;;5048382;28;20233;-89
2023/05/15 08:36:25;;;;;;;3.30;2.47;;;;;;;;;;5035755;28;20241;-91
2023/05/15 08:38:52;;;;;;;2.63;2.40;;;;;;;;;;5050685;28;20202;-90
2023/05/15 08:41:26;;;;;;;3.97;2.60;;;;;;;;;;5046467;28;20234;-89
2023/05/15 08:43:55;;;;;;;2.80;2.60;;;;;;;;;;5041130;28;20246;-88
2023/05/15 08:46:22;;;;;;;5.07;2.90;;;;;;;;;;5051006;28;20237;-88
2023/05/15 08:48:49;;;;;;;2.78;2.42;;;;;;;;;;5047898;28;20202;-87
2023/05/15 08:51:17;;;;;;;4.13;2.55;;;;;;;;;;5044925;28;20234;-86
2023/05/15 08:53:46;;;;;;;2.33;2.22;;;;;;;;;;5040987;28;20218;-86
2023/05/15 08:56:13;;;;;;;3.10;2.33;;;;;;;;;;5041604;28;20234;-85
2023/05/15 08:58:41;;;;;;;2.42;2.22;;;;;;;;;;5038073;28;20206;-86
2023/05/15 09:01:08;;;;;;;2.75;2.55;;;;;;;;;;5052882;28;20700;-86
2023/05/15 09:03:35;;;;;;;2.72;2.53;;;;;;;;;;5038589;28;20223;-86
2023/05/15 09:06:03;;;;;;;2.42;2.20;;;;;;;;;;5050592;28;20287;-86
2023/05/15 09:08:33;;;;;;;2.50;2.30;;;;;;;;;;5055896;28;20214;-87
2023/05/15 09:11:02;;;;;;;4.05;2.30;;;;;;;;;;5046966;28;20230;-86
2023/05/15 09:13:30;;;;;;;2.50;2.30;;;;;;;;;;5049171;28;20908;-91
2023/05/15 09:15:57;;;;;;;3.25;2.40;;;;;;;;;;5051076;28;20280;-91
2023/05/15 09:18:24;;;;;;;2.38;2.17;;;;;;;;;;5056848;28;20609;-93
2023/05/15 09:20:52;;;;;;;2.60;2.40;;;;;;;;;;5046700;28;20236;-91
2023/05/15 09:23:23;;;;;;;6.63;2.60;;;;;;;;;;5058575;28;20362;-91
2023/05/15 09:25:52;;;;;;;2.83;2.55;;;;;;;;;;5055506;28;20747;-93
2023/05/15 09:28:28;;;;;;;2.45;2.25;;;;;;;;;;5051932;28;20265;-94
2023/05/15 09:30:59;;;;;;;2.60;2.40;;;;;;;;;;5052413;28;20233;-95
2023/05/15 09:33:33;;;;;;;2.42;2.20;;;;;;;;;;5057073;28;20222;-91
2023/05/15 09:36:00;;;;;;;3.85;2.30;;;;;;;;;;5042661;28;20711;-89
2023/05/15 09:38:28;;;;;;;2.78;2.30;;;;;;;;;;5052151;28;20214;-91
2023/05/15 09:41:05;;;;;;;3.42;2.53;;;;;;;;;;5052076;28;20232;-88
2023/05/15 09:43:35;;;;;;;4.70;2.05;;;;;;;;;;5040340;28;20230;-91
2023/05/15 09:46:03;;;;;;;2.50;2.00;;;;;;;;;;5042007;28;20230;-89
2023/05/15 09:48:31;;;;;;;2.95;2.30;;;;;;;;;;5040892;28;20207;-90
2023/05/15 09:50:58;;;;;;;4.75;2.47;;;;;;;;;;5046073;28;20222;-95
2023/05/15 09:53:25;;;;;;;4.22;2.15;;;;;;;;;;5042023;28;20219;-93
2023/05/15 09:55:54;;;;;;;2.70;2.10;;;;;;;;;;5041608;28;20736;-95
2023/05/15 09:58:22;;;;;;;2.70;2.50;;;;;;;;;;5042905;28;20203;-94
2023/05/15 10:00:50;;;;;;;2.60;2.40;;;;;;;;;;5044370;28;20602;-94
2023/05/15 10:03:20;;;;;;;3.08;2.08;;;;;;;;;;5041493;28;20237;-94
2023/05/15 10:05:47;;;;;;;2.20;2.00;;;;;;;;;;5044563;28;20622;-92
2023/05/15 10:08:14;;;;;;;2.60;2.40;;;;;;;;;;5061235;28;20194;-93
2023/05/15 10:10:42;;;;;;;2.38;2.10;;;;;;;;;;5061544;28;20237;-94
2023/05/15 10:13:10;;;;;;;2.50;2.03;;;;;;;;;;5061084;28;20214;-94
2023/05/15 10:15:37;;;;;;;2.70;2.08;;;;;;;;;;5058165;28;20257;-94
2023/05/15 10:18:06;;;;;;;2.85;2.65;;;;;;;;;;5039989;28;20305;-94
2023/05/15 10:20:35;;;;;;;3.50;2.30;;;;;;;;;;5056813;28;20238;-94
2023/05/15 10:23:04;;;;;;;4.55;2.30;;;;;;;;;;5048860;28;20260;-94
2023/05/15 10:25:34;;;;;;;5.25;2.63;;;;;;;;;;5039693;28;20230;-94
2023/05/15 10:28:01;;;;;;;2.65;2.45;;;;;;;;;;5040797;28;20187;-95
2023/05/15 10:36:09;;;;;;;2.95;2.38;;;;;;;;;;5078764;28;20286;-95
2023/05/15 10:38:37;;;;;;;4.45;2.40;;;;;;;;;;5083250;28;20208;-95
2023/05/15 10:41:04;;;;;;;4.57;2.55;;;;;;;;;;5082522;28;20233;-94
2023/05/15 10:43:32;;;;;;;3.15;2.10;;;;;;;;;;5081130;28;20248;-93
2023/05/15 10:46:02;;;;;;;4.07;2.53;;;;;;;;;;5079626;28;20263;-93
2023/05/15 10:48:33;;;;;;;2.78;2.58;;;;;;;;;;5085380;28;20190;-87
2023/05/15 10:56:45;;;;;;;3.22;2.53;;;;;;;;;;5733324;22;20232;-96
2023/05/15 10:59:16;;;;;;;3.75;2.20;;;;;;;;;;5097124;28;20261;-96
2023/05/15 11:01:52;;;;;;;3.05;2.78;;;;;;;;;;5069055;28;20229;-96
2023/05/15 11:04:36;;;;;;;3.35;2.58;;;;;;;;;;5077512;28;20232;-96
2023/05/15 11:09:56;;;;;;;2.92;2.63;;;;;;;;;;5069269;28;20227;-96
2023/05/15 11:12:47;;;;;;;4.22;3.20;;;;;;;;;;5066557;28;20237;-95
2023/05/15 11:15:22;;;;;;;5.57;3.78;;;;;;;;;;5066418;28;20213;-92
2023/05/15 11:18:05;;;;;;;4.88;4.03;;;;;;;;;;5070359;28;20711;-96
2023/05/15 11:20:39;;;;;;;6.25;4.15;;;;;;;;;;5068226;28;20233;-94
2023/05/15 11:23:10;;;;;;;5.03;4.20;;;;;;;;;;5072173;28;20209;-96
2023/05/15 11:31:09;;;;;;;3.63;3.33;;;;;;;;;;5049120;28;20229;-95
2023/05/15 11:57:08;;;;;;;3.53;2.50;;;;;;;;;;5042973;28;20715;-94
2023/05/15 11:59:37;;;;;;;3.33;2.60;;;;;;;;;;5038344;28;20191;-95
2023/05/15 12:02:19;;;;;;;3.13;2.63;;;;;;;;;;5038967;28;20313;-94
2023/05/15 12:04:55;;;;;;;3.20;2.55;;;;;;;;;;5057110;28;20198;-95
2023/05/15 12:07:22;;;;;;;2.95;2.67;;;;;;;;;;5059760;28;20241;-93
2023/05/15 12:09:52;;;;;;;2.58;2.40;;;;;;;;;;5062763;28;20202;-93
2023/05/15 12:12:20;;;;;;;3.53;2.90;;;;;;;;;;5061063;28;20241;-94
2023/05/15 12:14:47;;;;;;;3.25;2.95;;;;;;;;;;5061043;28;20210;-94
2023/05/15 12:17:15;;;;;;;6.43;4.72;;;;;;;;;;5053869;28;20264;-94
2023/05/15 12:19:43;;;;;;;4.78;4.25;;;;;;;;;;5060492;28;20198;-93
2023/05/15 12:22:12;;;;;;;5.55;4.70;;;;;;;;;;5060672;28;20233;-96
2023/05/15 12:24:40;;;;;;;6.03;5.00;;;;;;;;;;5058532;28;20212;-92
2023/05/15 12:27:08;;;;;;;5.60;4.70;;;;;;;;;;5063101;28;20232;-93
2023/05/15 12:29:37;;;;;;;7.97;6.80;;;;;;;;;;5064465;28;20182;-94
2023/05/15 12:32:04;;;;;;;6.07;5.30;;;;;;;;;;5064710;28;20238;-93
2023/05/15 12:34:31;;;;;;;6.38;5.35;;;;;;;;;;5058189;28;20233;-94
2023/05/15 12:36:59;;;;;;;6.47;5.43;;;;;;;;;;5061989;28;20243;-93
2023/05/15 12:39:27;;;;;;;8.35;6.68;;;;;;;;;;5056582;28;20679;-93
2023/05/15 12:41:54;;;;;;;10.55;6.40;;;;;;;;;;5065795;28;20586;-93
2023/05/15 12:44:21;;;;;;;7.25;5.50;;;;;;;;;;5069655;28;20193;-95
2023/05/15 12:46:49;;;;;;;6.40;5.80;;;;;;;;;;5068003;28;20229;-95
2023/05/15 12:49:21;;;;;;;7.22;5.97;;;;;;;;;;5057678;28;20225;-95
2023/05/15 12:51:49;;;;;;;7.85;6.28;;;;;;;;;;5069295;28;20240;-96
2023/05/15 12:54:19;;;;;;;7.68;5.93;;;;;;;;;;5065481;28;20240;-95
2023/05/15 12:56:47;;;;;;;6.53;5.75;;;;;;;;;;5065940;28;20233;-95
2023/05/15 12:59:14;;;;;;;6.40;5.80;;;;;;;;;;5071907;28;20213;-95
2023/05/15 13:01:42;;;;;;;5.95;5.38;;;;;;;;;;5069503;28;20253;-95
2023/05/15 13:04:14;;;;;;;6.10;5.50;;;;;;;;;;5066781;28;20605;-96
2023/05/15 13:06:41;;;;;;;8.60;5.65;;;;;;;;;;5067648;28;20322;-95
2023/05/15 13:09:08;;;;;;;7.60;6.15;;;;;;;;;;5063081;28;20213;-93
2023/05/15 13:11:36;;;;;;;8.90;5.90;;;;;;;;;;5062503;28;20229;-92
2023/05/15 13:14:09;;;;;;;6.15;4.30;;;;;;;;;;5062458;28;20244;-92
2023/05/15 13:16:37;;;;;;;6.65;5.18;;;;;;;;;;5063103;28;20230;-90
2023/05/15 13:19:05;;;;;;;6.68;5.22;;;;;;;;;;5064241;28;20210;-90
2023/05/15 13:21:34;;;;;;;5.13;4.30;;;;;;;;;;5059440;28;20237;-91
2023/05/15 13:24:01;;;;;;;6.15;4.05;;;;;;;;;;5042647;28;20230;-91
2023/05/15 13:26:28;;;;;;;7.93;4.70;;;;;;;;;;5045492;28;20230;-90
2023/05/15 13:28:55;;;;;;;5.72;4.20;;;;;;;;;;5054908;28;20521;-91
2023/05/15 13:31:22;;;;;;;4.80;4.22;;;;;;;;;;5045768;28;20245;-92
2023/05/15 13:33:49;;;;;;;5.65;5.10;;;;;;;;;;5041400;28;20337;-92
2023/05/15 13:36:16;;;;;;;9.57;5.55;;;;;;;;;;5042901;28;20233;-90
2023/05/15 13:38:45;;;;;;;5.80;5.18;;;;;;;;;;5057654;28;20198;-92
2023/05/15 13:41:12;;;;;;;5.03;4.43;;;;;;;;;;5055948;28;20238;-93
2023/05/15 13:43:39;;;;;;;5.65;4.55;;;;;;;;;;5059878;28;20253;-91
2023/05/15 13:46:06;;;;;;;5.20;4.70;;;;;;;;;;5059591;28;20225;-91
2023/05/15 13:48:33;;;;;;;6.22;4.93;;;;;;;;;;5059519;28;20230;-91
2023/05/15 13:51:03;;;;;;;5.35;4.85;;;;;;;;;;5059260;28;20229;-91
2023/05/15 13:53:30;;;;;;;5.75;5.15;;;;;;;;;;5062435;28;20230;-92
2023/05/15 13:55:59;;;;;;;6.32;5.60;;;;;;;;;;5060201;28;20809;-91
2023/05/15 13:58:26;;;;;;;8.02;5.95;;;;;;;;;;5062280;28;20648;-93
2023/05/15 14:00:53;;;;;;;5.20;4.70;;;;;;;;;;5061664;28;20236;-93
2023/05/15 14:03:20;;;;;;;6.82;5.45;;;;;;;;;;5063455;28;20229;-95
2023/05/15 14:05:47;;;;;;;5.45;4.95;;;;;;;;;;5058292;28;20233;-94
2023/05/15 14:08:15;;;;;;;4.93;4.38;;;;;;;;;;5056252;28;20242;-93
2023/05/15 14:10:42;;;;;;;5.72;5.00;;;;;;;;;;5042330;28;20280;-93
2023/05/15 14:13:10;;;;;;;5.75;5.10;;;;;;;;;;5039367;28;20226;-93
2023/05/15 14:15:37;;;;;;;6.88;5.18;;;;;;;;;;5049109;28;20230;-90
2023/05/15 14:18:04;;;;;;;6.55;5.10;;;;;;;;;;5043120;28;20248;-94
2023/05/15 14:20:32;;;;;;;6.72;5.57;;;;;;;;;;5053788;28;20234;-93
2023/05/15 14:23:01;;;;;;;6.15;5.30;;;;;;;;;;5044620;28;20230;-96
2023/05/15 14:25:28;;;;;;;5.53;5.03;;;;;;;;;;5046317;28;20234;-92
2023/05/15 14:27:55;;;;;;;7.07;5.10;;;;;;;;;;5064550;28;20226;-92
2023/05/15 14:30:24;;;;;;;5.70;5.03;;;;;;;;;;5059343;28;20323;-93
2023/05/15 14:32:51;;;;;;;5.80;4.95;;;;;;;;;;5050690;28;20222;-93
2023/05/15 14:35:18;;;;;;;7.47;4.78;;;;;;;;;;5051557;28;20224;-92
2023/05/15 14:37:45;;;;;;;5.75;5.00;;;;;;;;;;5057749;28;20205;-93
2023/05/15 14:40:12;;;;;;;4.97;4.50;;;;;;;;;;5041331;28;20215;-92
2023/05/15 14:42:40;;;;;;;6.10;4.55;;;;;;;;;;5042408;28;20207;-92
2023/05/15 14:45:07;;;;;;;7.03;4.90;;;;;;;;;;5050609;28;20205;-92
2023/05/15 14:47:36;;;;;;;6.82;4.95;;;;;;;;;;5056951;28;20229;-92
2023/05/15 14:50:03;;;;;;;5.43;4.93;;;;;;;;;;5059434;28;20198;-93
2023/05/15 14:52:30;;;;;;;5.93;4.40;;;;;;;;;;5043951;28;20249;-91
2023/05/15 14:54:58;;;;;;;5.47;4.75;;;;;;;;;;5039836;28;20214;-91
2023/05/15 14:57:26;;;;;;;5.95;5.10;;;;;;;;;;5040893;28;20744;-90
2023/05/15 14:59:53;;;;;;;6.43;5.28;;;;;;;;;;5042629;28;20210;-91
2023/05/15 15:02:20;;;;;;;5.80;5.20;;;;;;;;;;5057790;28;20339;-91
2023/05/15 15:04:48;;;;;;;6.03;5.30;;;;;;;;;;5053241;28;20217;-92
2023/05/15 15:07:16;;;;;;;5.45;4.82;;;;;;;;;;5049343;28;20229;-91
2023/05/15 15:09:45;;;;;;;6.28;5.15;;;;;;;;;;5033167;28;20213;-95
2023/05/15 15:12:12;;;;;;;8.65;5.68;;;;;;;;;;5033508;28;20238;-91
2023/05/15 15:14:39;;;;;;;7.70;5.10;;;;;;;;;;5038176;28;20194;-89
2023/05/15 15:17:06;;;;;;;7.40;5.22;;;;;;;;;;5032895;28;20241;-92
2023/05/15 15:19:34;;;;;;;5.75;4.82;;;;;;;;;;5046245;28;20198;-90
2023/05/15 15:22:02;;;;;;;5.43;4.93;;;;;;;;;;5035825;28;20239;-90
2023/05/15 15:24:29;;;;;;;6.50;5.00;;;;;;;;;;5033220;28;20210;-91
2023/05/15 15:26:56;;;;;;;5.22;4.30;;;;;;;;;;5040162;28;20241;-90
2023/05/15 15:29:23;;;;;;;5.15;4.65;;;;;;;;;;5053520;28;20687;-90
2023/05/15 15:31:50;;;;;;;9.50;5.85;;;;;;;;;;5046124;28;20230;-90
2023/05/15 15:34:17;;;;;;;7.45;4.07;;;;;;;;;;5033865;28;20229;-90
2023/05/15 15:36:45;;;;;;;4.88;4.13;;;;;;;;;;5033393;28;20241;-91
2023/05/15 15:39:13;;;;;;;5.93;4.95;;;;;;;;;;5051446;28;20686;-90
2023/05/15 15:41:40;;;;;;;3.80;3.50;;;;;;;;;;5043840;28;20680;-90
2023/05/15 15:44:07;;;;;;;4.18;3.78;;;;;;;;;;5035144;28;20584;-90
2023/05/15 15:46:34;;;;;;;5.13;3.40;;;;;;;;;;5031744;28;20226;-90
2023/05/15 15:49:02;;;;;;;4.45;4.05;;;;;;;;;;5032282;28;20230;-90
2023/05/15 15:51:29;;;;;;;3.88;3.47;;;;;;;;;;5035005;28;20252;-89
2023/05/15 15:53:56;;;;;;;4.35;3.88;;;;;;;;;;5051776;28;20249;-90
2023/05/15 15:56:24;;;;;;;4.40;3.47;;;;;;;;;;5051254;28;20253;-90
2023/05/15 15:58:51;;;;;;;4.15;3.63;;;;;;;;;;5037018;28;20206;-90
2023/05/15 16:01:19;;;;;;;4.28;3.85;;;;;;;;;;5050410;28;20234;-91
2023/05/15 16:03:46;;;;;;;3.88;3.53;;;;;;;;;;5040155;28;20284;-91
2023/05/15 16:06:13;;;;;;;5.55;3.67;;;;;;;;;;5043310;28;20587;-91
2023/05/15 16:08:41;;;;;;;5.47;3.75;;;;;;;;;;5054931;28;20252;-92
2023/05/15 16:11:08;;;;;;;4.45;3.75;;;;;;;;;;5053772;28;20248;-92
2023/05/15 16:13:36;;;;;;;4.18;3.28;;;;;;;;;;5053887;28;20230;-91
2023/05/15 16:16:03;;;;;;;4.30;3.90;;;;;;;;;;5053574;28;20233;-92
2023/05/15 16:18:30;;;;;;;4.78;3.67;;;;;;;;;;5054224;28;20683;-92
2023/05/15 16:21:00;;;;;;;4.60;4.20;;;;;;;;;;5053589;28;20234;-92
2023/05/15 16:23:27;;;;;;;4.22;3.83;;;;;;;;;;5053828;28;20226;-92
2023/05/15 16:25:54;;;;;;;4.53;3.78;;;;;;;;;;5053915;28;20233;-92
2023/05/15 16:28:21;;;;;;;4.22;3.85;;;;;;;;;;5053300;28;20226;-92
2023/05/15 16:30:50;;;;;;;4.03;3.63;;;;;;;;;;5053436;28;20229;-91
2023/05/15 16:33:17;;;;;;;3.75;3.45;;;;;;;;;;5045875;28;20251;-91
2023/05/15 16:35:45;;;;;;;3.85;3.50;;;;;;;;;;5055150;28;20226;-92
2023/05/15 16:38:26;;;;;;;5.63;3.50;;;;;;;;;;5056239;28;20263;-91
2023/05/15 16:40:53;;;;;;;4.40;3.80;;;;;;;;;;5055630;28;20604;-92
2023/05/15 16:43:20;;;;;;;3.47;3.17;;;;;;;;;;5056546;28;20309;-91
2023/05/15 16:45:47;;;;;;;4.40;3.65;;;;;;;;;;5053951;28;20245;-86
2023/05/15 16:48:16;;;;;;;4.47;3.92;;;;;;;;;;5066072;23;20232;-86
2023/05/15 16:50:43;;;;;;;6.97;3.97;;;;;;;;;;5071655;28;20221;-88
2023/05/15 16:53:10;;;;;;;4.47;4.07;;;;;;;;;;5072348;28;20209;-88
2023/05/15 16:55:37;;;;;;;4.40;4.00;;;;;;;;;;5067717;28;20249;-88
2023/05/15 16:58:04;;;;;;;3.92;3.53;;;;;;;;;;5067981;28;20214;-87
2023/05/15 17:00:31;;;;;;;5.20;3.92;;;;;;;;;;5052609;28;20230;-90
2023/05/15 17:02:58;;;;;;;5.30;3.70;;;;;;;;;;5052031;28;20238;-85
2023/05/15 17:05:26;;;;;;;5.85;3.75;;;;;;;;;;5050994;28;20230;-87
2023/05/15 17:07:53;;;;;;;5.45;4.30;;;;;;;;;;5045252;28;20231;-86
2023/05/15 17:10:21;;;;;;;4.55;3.90;;;;;;;;;;5048095;28;20229;-86
2023/05/15 17:12:48;;;;;;;6.00;4.78;;;;;;;;;;5053896;28;20205;-86
2023/05/15 17:15:15;;;;;;;4.45;4.05;;;;;;;;;;5042184;28;20300;-87
2023/05/15 17:17:42;;;;;;;5.05;4.55;;;;;;;;;;5051260;28;20226;-85
2023/05/15 17:20:09;;;;;;;5.03;4.13;;;;;;;;;;5050543;28;20206;-88
2023/05/15 17:22:38;;;;;;;4.28;3.97;;;;;;;;;;5050329;28;20205;-90
2023/05/15 17:25:05;;;;;;;4.63;4.22;;;;;;;;;;5050682;28;20207;-90
2023/05/15 17:27:34;;;;;;;5.40;4.10;;;;;;;;;;5053716;28;20230;-89
2023/05/15 17:30:01;;;;;;;4.82;3.95;;;;;;;;;;5054792;28;20202;-85
2023/05/15 17:32:29;;;;;;;6.18;4.45;;;;;;;;;;5054344;28;20309;-90
2023/05/15 17:34:56;;;;;;;5.18;4.15;;;;;;;;;;5048994;28;20203;-89
2023/05/15 17:37:23;;;;;;;4.80;4.40;;;;;;;;;;5063435;28;20233;-86
2023/05/15 17:39:51;;;;;;;6.50;4.65;;;;;;;;;;5061591;28;20606;-87
2023/05/15 17:42:18;;;;;;;5.82;4.63;;;;;;;;;;5045389;28;20238;-86
2023/05/15 17:44:56;;;;;;;6.38;5.28;;;;;;;;;;5048862;28;20202;-87
2023/05/15 17:47:23;;;;;;;5.47;4.88;;;;;;;;;;5046052;28;20249;-87
2023/05/15 17:49:50;;;;;;;7.43;4.88;;;;;;;;;;5060218;28;20217;-87
2023/05/15 17:52:17;;;;;;;7.47;5.35;;;;;;;;;;5055742;28;20226;-87
2023/05/15 17:54:44;;;;;;;6.13;4.90;;;;;;;;;;5055994;28;20217;-87
2023/05/15 17:57:12;;;;;;;8.43;4.90;;;;;;;;;;5046357;28;20233;-87
2023/05/15 17:59:39;;;;;;;5.70;5.07;;;;;;;;;;5055349;28;20197;-88
2023/05/15 18:02:07;;;;;;;5.35;4.85;;;;;;;;;;5067048;28;20484;-87
2023/05/15 18:04:34;;;;;;;5.22;4.72;;;;;;;;;;5064504;28;20662;-88
2023/05/15 18:07:01;;;;;;;5.03;4.55;;;;;;;;;;5055798;28;20229;-88
2023/05/15 18:09:28;;;;;;;6.37;5.07;;;;;;;;;;5054918;28;20233;-85
2023/05/15 18:11:55;;;;;;;8.15;4.63;;;;;;;;;;5058538;28;20724;-86
2023/05/15 18:14:23;;;;;;;6.88;5.35;;;;;;;;;;5055995;28;20217;-85
2023/05/15 18:16:51;;;;;;;7.72;5.80;;;;;;;;;;5053473;28;20226;-85
2023/05/15 18:19:18;;;;;;;5.43;4.88;;;;;;;;;;5045529;28;20198;-85
2023/05/15 18:21:46;;;;;;;5.60;5.10;;;;;;;;;;5053424;28;20230;-86
2023/05/15 18:24:13;;;;;;;8.10;5.03;;;;;;;;;;5053371;28;20241;-85
2023/05/15 18:26:40;;;;;;;6.80;5.72;;;;;;;;;;5044531;28;20230;-85
2023/05/15 18:29:07;;;;;;;5.95;5.35;;;;;;;;;;5053076;28;20237;-85
2023/05/15 18:31:36;;;;;;;6.13;5.32;;;;;;;;;;5052169;28;20233;-84
2023/05/15 18:34:03;;;;;;;9.40;5.30;;;;;;;;;;5052896;28;20218;-85
2023/05/15 18:36:30;;;;;;;11.15;5.53;;;;;;;;;;5044037;28;20226;-85
2023/05/15 18:38:58;;;;;;;6.07;5.47;;;;;;;;;;5052216;28;20275;-85
2023/05/15 18:41:26;;;;;;;6.38;5.05;;;;;;;;;;5052532;28;20230;-84
2023/05/15 18:43:53;;;;;;;6.37;5.03;;;;;;;;;;5044255;28;20894;-85
2023/05/15 18:46:20;;;;;;;6.03;5.22;;;;;;;;;;5052037;28;20238;-85
2023/05/15 18:48:48;;;;;;;6.45;5.15;;;;;;;;;;5055087;28;20229;-85
2023/05/15 18:51:15;;;;;;;5.67;5.10;;;;;;;;;;5052313;28;20237;-86
2023/05/15 18:53:43;;;;;;;5.15;4.75;;;;;;;;;;5053175;28;20206;-85
2023/05/15 18:56:11;;;;;;;5.60;5.10;;;;;;;;;;5052784;28;20254;-86
2023/05/15 18:58:38;;;;;;;6.15;4.93;;;;;;;;;;5060777;28;20218;-85
2023/05/15 19:01:05;;;;;;;8.27;5.82;;;;;;;;;;5052734;28;20233;-86
2023/05/15 19:03:32;;;;;;;9.20;5.57;;;;;;;;;;5052842;28;20202;-85
2023/05/15 19:06:00;;;;;;;7.23;4.93;;;;;;;;;;5053209;28;20233;-86
2023/05/15 19:08:27;;;;;;;6.17;5.37;;;;;;;;;;5042646;28;20684;-87
2023/05/15 19:10:55;;;;;;;6.40;5.67;;;;;;;;;;5046275;28;20233;-86
2023/05/15 19:13:22;;;;;;;7.57;5.33;;;;;;;;;;5062597;28;20197;-85
2023/05/15 19:15:52;;;;;;;8.17;6.00;;;;;;;;;;5062150;28;20222;-85
2023/05/15 19:18:19;;;;;;;7.63;5.57;;;;;;;;;;5054362;28;20246;-85
2023/05/15 19:20:49;;;;;;;6.27;5.63;;;;;;;;;;5059720;28;20241;-86
2023/05/15 19:23:17;;;;;;;6.93;5.80;;;;;;;;;;5067962;28;20197;-86
2023/05/15 19:25:44;;;;;;;5.97;5.47;;;;;;;;;;5056986;28;20276;-86
2023/05/15 19:28:13;;;;;;;7.87;5.37;;;;;;;;;;5058062;28;20272;-86
2023/05/15 19:30:40;;;;;;;8.23;5.90;;;;;;;;;;5052555;28;20225;-86
2023/05/15 19:33:07;;;;;;;6.43;5.70;;;;;;;;;;5052812;28;20205;-86
2023/05/15 19:35:34;;;;;;;8.23;6.17;;;;;;;;;;5044311;28;20731;-86
2023/05/15 19:38:01;;;;;;;8.40;6.13;;;;;;;;;;5061203;28;20226;-86
2023/05/15 19:40:29;;;;;;;6.43;5.83;;;;;;;;;;5052597;28;20237;-85
2023/05/15 19:42:56;;;;;;;6.50;5.60;;;;;;;;;;5057752;28;20212;-85
2023/05/15 19:45:23;;;;;;;8.73;6.10;;;;;;;;;;5057665;28;20257;-87
2023/05/15 19:47:51;;;;;;;9.77;6.30;;;;;;;;;;5052808;28;20229;-87
2023/05/15 19:50:18;;;;;;;10.30;7.13;;;;;;;;;;5057606;28;20279;-87
2023/05/15 19:52:46;;;;;;;7.57;6.60;;;;;;;;;;5053512;28;20230;-89
2023/05/15 19:55:18;;;;;;;8.10;7.00;;;;;;;;;;5052962;28;20212;-86
2023/05/15 19:57:48;;;;;;;11.17;7.23;;;;;;;;;;5045088;28;20771;-86
2023/05/15 20:00:15;;;;;;;10.13;7.43;;;;;;;;;;5052226;28;20190;-86
2023/05/15 20:02:43;;;;;;;8.80;7.57;;;;;;;;;;5041091;28;20209;-85
2023/05/15 20:05:10;;;;;;;9.03;7.37;;;;;;;;;;5047904;28;20190;-85
2023/05/15 20:07:38;;;;;;;9.30;8.27;;;;;;;;;;5053070;28;20230;-86
2023/05/15 20:10:05;;;;;;;11.20;8.10;;;;;;;;;;5052390;28;20252;-87
2023/05/15 20:12:35;;;;;;;11.47;8.43;;;;;;;;;;5052869;28;20633;-86
2023/05/15 20:15:03;;;;;;;9.47;8.33;;;;;;;;;;5053019;28;20560;-86
2023/05/15 20:17:30;;;;;;;11.17;7.27;;;;;;;;;;5052347;28;20566;-85
2023/05/15 20:19:58;;;;;;;10.43;7.93;;;;;;;;;;5052654;28;20195;-86
2023/05/15 20:22:36;;;;;;;8.70;7.80;;;;;;;;;;5052001;28;20236;-86
2023/05/15 20:25:03;;;;;;;7.63;6.90;;;;;;;;;;5060754;28;20198;-88
2023/05/15 20:27:30;;;;;;;11.23;7.83;;;;;;;;;;5052979;28;20232;-87
2023/05/15 20:29:59;;;;;;;10.60;7.43;;;;;;;;;;5052826;28;20694;-86
2023/05/15 20:32:27;;;;;;;10.67;6.60;;;;;;;;;;5052279;28;20226;-86
2023/05/15 20:34:55;;;;;;;8.40;6.40;;;;;;;;;;5052980;28;20206;-86
2023/05/15 20:37:26;;;;;;;8.47;7.00;;;;;;;;;;5052334;28;20316;-86
2023/05/15 20:39:53;;;;;;;8.17;6.90;;;;;;;;;;5053215;28;20217;-87
2023/05/15 20:42:20;;;;;;;7.83;6.27;;;;;;;;;;5060967;28;20254;-87
2023/05/15 20:44:47;;;;;;;9.00;7.40;;;;;;;;;;5053146;28;20231;-85
2023/05/15 20:47:15;;;;;;;9.60;6.20;;;;;;;;;;5052362;28;20238;-86
2023/05/15 20:49:43;;;;;;;7.80;7.00;;;;;;;;;;5053066;28;20579;-87
2023/05/15 20:52:10;;;;;;;7.43;6.73;;;;;;;;;;5052789;28;20610;-87
2023/05/15 20:54:37;;;;;;;10.07;6.97;;;;;;;;;;5053068;28;20660;-88
2023/05/15 20:57:05;;;;;;;8.50;7.33;;;;;;;;;;5052125;28;20241;-89
2023/05/15 20:59:33;;;;;;;8.13;7.27;;;;;;;;;;5053248;28;20236;-89
2023/05/15 21:02:00;;;;;;;10.13;7.37;;;;;;;;;;5054263;28;20657;-89
2023/05/15 21:04:27;;;;;;;7.43;6.60;;;;;;;;;;5057140;28;20209;-88
2023/05/15 21:06:56;;;;;;;11.93;7.40;;;;;;;;;;5047484;28;20233;-90
2023/05/15 21:09:23;;;;;;;11.00;7.07;;;;;;;;;;5055537;28;20256;-90
2023/05/15 21:11:50;;;;;;;8.37;6.90;;;;;;;;;;5067919;28;20232;-86
2023/05/15 21:14:17;;;;;;;8.07;6.80;;;;;;;;;;5062425;28;20206;-86
2023/05/15 21:16:44;;;;;;;8.53;7.00;;;;;;;;;;5059280;28;20348;-86
2023/05/15 21:19:11;;;;;;;8.70;7.00;;;;;;;;;;5056694;28;20280;-87
2023/05/15 21:21:38;;;;;;;8.23;6.83;;;;;;;;;;5055831;28;20261;-87
2023/05/15 21:24:07;;;;;;;7.70;6.50;;;;;;;;;;5056416;28;20294;-88
2023/05/15 21:26:34;;;;;;;8.43;6.50;;;;;;;;;;5055666;28;20695;-87
2023/05/15 21:29:01;;;;;;;10.33;6.90;;;;;;;;;;5056238;28;20226;-87
2023/05/15 21:31:28;;;;;;;8.03;7.00;;;;;;;;;;5055542;28;20284;-87
2023/05/15 21:33:55;;;;;;;8.20;6.50;;;;;;;;;;5056286;28;20199;-87
2023/05/15 21:36:22;;;;;;;9.77;6.57;;;;;;;;;;5055388;28;20239;-87
2023/05/15 21:38:49;;;;;;;8.67;7.00;;;;;;;;;;5056150;28;20645;-87
2023/05/15 21:41:18;;;;;;;8.23;6.67;;;;;;;;;;5055975;28;20233;-88
2023/05/15 21:43:45;;;;;;;8.37;6.77;;;;;;;;;;5059265;28;20733;-88
2023/05/15 21:46:12;;;;;;;9.30;7.50;;;;;;;;;;5060341;28;20723;-87
2023/05/15 21:48:39;;;;;;;9.10;6.90;;;;;;;;;;5055815;28;20234;-88
2023/05/15 21:51:06;;;;;;;8.67;6.47;;;;;;;;;;5056825;28;20779;-89
2023/05/15 21:53:33;;;;;;;7.97;6.97;;;;;;;;;;5058668;28;20205;-89
2023/05/15 21:56:00;;;;;;;7.67;6.80;;;;;;;;;;5055389;28;20225;-90
2023/05/15 21:58:29;;;;;;;8.37;6.70;;;;;;;;;;5073321;28;20283;-89
2023/05/15 22:00:56;;;;;;;10.20;7.30;;;;;;;;;;5071004;28;20232;-90
2023/05/15 22:03:23;;;;;;;10.70;7.10;;;;;;;;;;5064201;28;20205;-90
2023/05/15 22:05:51;;;;;;;7.93;7.13;;;;;;;;;;5075405;28;20232;-89
2023/05/15 22:08:18;;;;;;;10.70;8.07;;;;;;;;;;5076217;28;20225;-89
2023/05/15 22:10:45;;;;;;;8.93;8.03;;;;;;;;;;5075362;28;20256;-89
2023/05/15 22:13:12;;;;;;;11.20;8.73;;;;;;;;;;5059842;28;20210;-89
2023/05/15 22:15:41;;;;;;;13.47;9.10;;;;;;;;;;5054952;28;20234;-89
2023/05/15 22:18:27;;;;;;;13.47;9.07;;;;;;;;;;5055527;28;20218;-89
2023/05/15 22:20:55;;;;;;;10.47;9.43;;;;;;;;;;5054982;28;20265;-89
2023/05/15 22:23:22;;;;;;;11.40;9.77;;;;;;;;;;5055431;28;20252;-89
2023/05/15 22:25:49;;;;;;;14.20;10.80;;;;;;;;;;5054923;28;20229;-89
2023/05/15 22:28:16;;;;;;;13.67;10.57;;;;;;;;;;5055779;28;20221;-89
2023/05/15 22:30:44;;;;;;;12.20;10.80;;;;;;;;;;5066030;28;20230;-89
2023/05/15 22:33:11;;;;;;;12.23;10.50;;;;;;;;;;5055216;28;20225;-89
2023/05/15 22:35:38;;;;;;;14.03;11.33;;;;;;;;;;5052434;28;20234;-89
2023/05/15 22:38:06;;;;;;;13.50;11.53;;;;;;;;;;5049176;28;20325;-89
2023/05/15 22:40:34;;;;;;;12.70;10.70;;;;;;;;;;5053469;28;20229;-89
2023/05/15 22:43:01;;;;;;;17.47;11.37;;;;;;;;;;5035277;28;20253;-90
2023/05/15 22:45:28;;;;;;;13.33;11.67;;;;;;;;;;5066799;28;20225;-89
2023/05/15 22:47:56;;;;;;;13.83;11.27;;;;;;;;;;5073091;23;20233;-88
2023/05/15 22:50:24;;;;;;;14.13;10.80;;;;;;;;;;5072606;28;20239;-87
2023/05/15 22:52:51;;;;;;;14.37;11.37;;;;;;;;;;5068744;28;20214;-88
2023/05/15 22:55:18;;;;;;;13.60;11.60;;;;;;;;;;5067184;28;20583;-87
2023/05/15 22:57:45;;;;;;;15.30;11.63;;;;;;;;;;5062643;28;20260;-88
2023/05/15 23:00:12;;;;;;;15.63;10.90;;;;;;;;;;5052056;28;20651;-87
2023/05/15 23:02:40;;;;;;;14.57;11.50;;;;;;;;;;5053663;28;20210;-87
2023/05/15 23:05:08;;;;;;;14.27;11.63;;;;;;;;;;5051957;28;20206;-87
2023/05/15 23:07:36;;;;;;;18.40;11.83;;;;;;;;;;5045318;28;20229;-87
2023/05/15 23:10:03;;;;;;;14.93;11.80;;;;;;;;;;5058905;28;20276;-88
2023/05/15 23:12:30;;;;;;;14.60;11.40;;;;;;;;;;5052362;28;20213;-88